METAR de aeropuertos de Murcia y cercanos

 

LEAL - Alicante
Actualización: 27/07/2017 02:30
Despejado
Despejado
 Viento del calm
Viento: Calma
Temperatura: 25°C
Rocío: 22°C
Humedad: 83%
Barómetro: 1015 hPa
Resumen: Despejado
Visibilidad: greater than 10 km
2017/07/27 00:30 LEAL 270030Z 00000KT CAVOK 25/22 Q1015 NOSIG
LEAB - Albacete
Actualización: 27/07/2017 02:00
Despejado
Despejado
 Viento del SSE
Viento: SSE 9 km/h
Temperatura: 22°C
Rocío: 18°C
Humedad: 78%
Barómetro: 1018 hPa
Resumen: Despejado
Visibilidad: greater than 10 km
2017/07/27 00:00 LEAB 270000Z 16005KT CAVOK 22/18 Q1018 NOSIG
LEAM - Almería
Actualización: 27/07/2017 02:30
Despejado
Despejado
 Viento del calm
Viento: Calma
Temperatura: 25°C
Rocío: 23°C
Humedad: 89%
Barómetro: 1015 hPa
Nubosidad: Despejado
Visibilidad: 10 km
2017/07/27 00:30 LEAM 270030Z AUTO 00000KT 9999 NCD 25/23 Q1015
 
LERI - Murcia/Alcantarilla
Actualización: 26/07/2017 20:00
NO Actualizado
Despejado
Despejado
 Viento del S
Viento: S 15 km/h
Temperatura: 32°C
Heat Index: 34°C
Rocío: 19°C
Humedad: 46%
Barómetro: 1012 hPa
Resumen: Despejado
Visibilidad: greater than 10 km
2017/07/26 18:00 LERI 261800Z 19008KT CAVOK 32/19 Q1012 NOSIG
LELC - Murcia/San Javier
Actualización: 26/07/2017 23:00
NO Actualizado
Despejado
Despejado
 Viento del S
Viento: S 7 km/h
Temperatura: 26°C
Rocío: 22°C
Humedad: 79%
Barómetro: 1015 hPa
Resumen: Despejado
Visibilidad: greater than 10 km
2017/07/26 21:00 LELC 262100Z 17004KT 130V200 CAVOK 26/22 Q1015 NOSIG

La estación de MeteoMurcia.com, publica sus datos en los siguientes proyectos:

Meteoclimatic www.awekas.at

W3Counter
Web Analytics